Time;durP1;ratioP1;P1;durP2;ratioP2;P2;SDS_P1;SDS_P2;PMS_P1;PMS_P2;Temp;Humidity;BMP_temperature;BMP_pressure;BME280_temperature;BME280_humidity;BME280_pressure;Samples;Min_cycle;Max_cycle;Signal;HPM_P1;HPM_P2
2023/03/25 00:00:12;;;;;;;1.37;1.20;;;;;;;9.53;100.00;95723.81;5058115;28;20258;-68
2023/03/25 00:02:39;;;;;;;4.00;1.70;;;;;;;9.61;100.00;95728.19;5057327;28;20225;-68
2023/03/25 00:05:11;;;;;;;2.93;1.47;;;;;;;9.64;100.00;95712.06;5056642;28;20211;-68
2023/03/25 00:07:38;;;;;;;1.77;1.00;;;;;;;9.55;100.00;95715.78;5057797;28;20216;-68
2023/03/25 00:10:05;;;;;;;2.83;1.10;;;;;;;9.64;100.00;95698.91;5057499;28;20201;-68
2023/03/25 00:12:32;;;;;;;1.10;0.70;;;;;;;9.63;99.78;95707.78;5057232;28;20317;-68
2023/03/25 00:14:58;;;;;;;1.97;1.13;;;;;;;9.54;99.76;95708.88;5057128;28;20215;-68
2023/03/25 00:17:27;;;;;;;2.97;0.80;;;;;;;9.63;98.97;95705.16;5057408;28;20223;-68
2023/03/25 00:19:54;;;;;;;1.73;1.07;;;;;;;9.67;98.14;95704.59;5057521;28;21130;-68
2023/03/25 00:22:22;;;;;;;1.97;1.20;;;;;;;9.75;98.00;95697.41;5057340;28;20232;-68
2023/03/25 00:24:49;;;;;;;2.27;1.60;;;;;;;9.70;97.17;95698.97;5055946;28;20215;-68
2023/03/25 00:27:16;;;;;;;2.00;1.30;;;;;;;9.64;97.10;95689.19;5057235;28;20553;-68
2023/03/25 00:29:43;;;;;;;3.23;1.53;;;;;;;9.61;97.29;95680.84;5057575;28;20300;-68
2023/03/25 00:32:10;;;;;;;2.20;1.07;;;;;;;9.68;97.12;95679.13;5057077;28;20260;-68
2023/03/25 00:34:40;;;;;;;2.77;0.87;;;;;;;9.54;97.46;95698.38;5056232;28;20634;-68
2023/03/25 00:37:07;;;;;;;2.47;1.23;;;;;;;9.61;96.91;95694.00;5057654;28;20208;-68
2023/03/25 00:39:35;;;;;;;1.93;1.10;;;;;;;9.65;97.32;95700.50;5057585;28;20235;-68
2023/03/25 00:42:02;;;;;;;4.30;0.70;;;;;;;9.50;97.31;95697.91;5056516;28;20230;-68
2023/03/25 00:44:29;;;;;;;1.40;0.83;;;;;;;9.54;97.43;95693.09;5055880;28;20220;-68
2023/03/25 00:46:56;;;;;;;3.83;1.10;;;;;;;9.45;97.95;95695.00;5056950;28;20200;-67
2023/03/25 00:49:23;;;;;;;3.57;0.87;;;;;;;9.55;97.60;95692.13;5056618;28;20215;-68
2023/03/25 00:51:50;;;;;;;1.33;0.80;;;;;;;9.41;97.71;95687.69;5056726;28;20222;-68
2023/03/25 00:54:17;;;;;;;2.43;1.00;;;;;;;9.51;97.29;95693.44;5056816;28;20296;-68
2023/03/25 00:56:45;;;;;;;3.30;1.07;;;;;;;9.50;97.00;95687.38;5056634;28;20204;-68
2023/03/25 00:59:11;;;;;;;2.40;1.13;;;;;;;9.32;97.80;95684.31;5056842;28;20212;-68
2023/03/25 01:01:38;;;;;;;3.53;1.07;;;;;;;9.35;97.37;95677.88;5057108;28;20220;-68
2023/03/25 01:04:10;;;;;;;2.83;0.80;;;;;;;9.44;96.99;95684.69;5055986;28;20277;-68
2023/03/25 01:06:40;;;;;;;1.33;1.00;;;;;;;9.46;97.27;95685.31;5056389;28;20977;-68
2023/03/25 01:09:08;;;;;;;0.73;0.70;;;;;;;9.36;97.05;95690.03;5057304;28;20201;-68
2023/03/25 01:11:37;;;;;;;1.53;1.00;;;;;;;9.48;96.15;95683.31;5056752;28;20220;-68
2023/03/25 01:14:07;;;;;;;2.37;0.90;;;;;;;9.52;95.81;95687.19;5055984;28;20225;-68
2023/03/25 01:16:33;;;;;;;0.97;0.73;;;;;;;9.49;95.12;95688.38;5056338;28;20193;-68
2023/03/25 01:19:00;;;;;;;0.60;0.60;;;;;;;9.51;95.18;95698.72;5056298;28;20204;-68
2023/03/25 01:21:26;;;;;;;1.37;0.90;;;;;;;9.54;94.83;95693.09;5056728;28;20216;-68
2023/03/25 01:23:53;;;;;;;1.87;0.80;;;;;;;9.47;94.64;95698.28;5055849;28;20200;-68
2023/03/25 01:26:19;;;;;;;2.13;0.93;;;;;;;9.50;95.20;95703.16;5056662;28;20208;-68
2023/03/25 01:28:46;;;;;;;0.63;0.63;;;;;;;9.53;94.78;95702.78;5056730;28;20200;-68
2023/03/25 01:31:15;;;;;;;3.70;0.87;;;;;;;9.63;94.62;95698.06;5056628;28;20216;-68
2023/03/25 01:33:41;;;;;;;0.73;0.60;;;;;;;9.44;95.68;95696.00;5055966;28;20220;-68
2023/03/25 01:36:11;;;;;;;1.20;0.80;;;;;;;9.54;95.66;95698.38;5056265;28;20207;-68
2023/03/25 01:38:38;;;;;;;0.47;0.47;;;;;;;9.38;95.74;95703.81;5056315;28;20200;-68
2023/03/25 01:41:06;;;;;;;0.60;0.60;;;;;;;9.46;95.66;95696.66;5055986;28;20220;-68
2023/03/25 01:43:33;;;;;;;1.17;0.67;;;;;;;9.48;96.28;95693.81;5055899;28;20201;-68
2023/03/25 01:46:00;;;;;;;1.57;0.80;;;;;;;9.34;97.21;95699.91;5055925;28;20209;-68
2023/03/25 01:48:35;;;;;;;5.87;0.80;;;;;;;9.41;98.07;95703.47;5056134;28;20204;-68
2023/03/25 01:51:07;;;;;;;6.47;1.07;;;;;;;9.38;99.41;95698.53;5056285;28;20217;-68
2023/03/25 01:53:33;;;;;;;0.60;0.60;;;;;;;9.18;99.75;95706.19;5055310;28;20239;-68
2023/03/25 01:56:02;;;;;;;1.23;0.70;;;;;;;9.22;100.00;95704.00;5055776;28;20227;-68
2023/03/25 01:58:31;;;;;;;1.20;0.97;;;;;;;9.07;100.00;95705.00;5056597;28;20207;-68
2023/03/25 02:01:00;;;;;;;0.53;0.53;;;;;;;8.90;100.00;95704.34;5056181;28;20217;-68
2023/03/25 02:03:35;;;;;;;1.53;1.20;;;;;;;8.82;100.00;95687.84;5056192;28;20292;-68
2023/03/25 02:06:05;;;;;;;1.30;0.87;;;;;;;8.66;100.00;95680.94;5056097;28;20196;-68
2023/03/25 02:08:36;;;;;;;1.90;1.00;;;;;;;8.70;100.00;95679.59;5055568;28;20204;-68
2023/03/25 02:11:03;;;;;;;0.97;0.80;;;;;;;8.67;100.00;95674.69;5055393;28;20227;-68
2023/03/25 02:13:31;;;;;;;1.23;0.90;;;;;;;8.65;100.00;95666.16;5056145;28;20228;-68
2023/03/25 02:16:16;;;;;;;1.70;1.10;;;;;;;8.66;100.00;95669.63;5055665;28;20216;-68
2023/03/25 02:18:56;;;;;;;2.13;1.17;;;;;;;8.61;100.00;95683.28;5055556;28;20228;-68
2023/03/25 02:22:02;;;;;;;1.40;0.90;;;;;;;8.59;100.00;95673.94;5056774;28;20224;-68
2023/03/25 02:25:00;;;;;;;3.13;1.57;;;;;;;8.69;100.00;95679.75;5029848;28;20201;-68
2023/03/25 02:27:40;;;;;;;3.50;2.30;;;;;;;8.58;100.00;95678.38;5055269;28;20205;-68
2023/03/25 02:30:31;;;;;;;2.57;1.13;;;;;;;8.71;100.00;95657.59;5055064;28;20680;-68
2023/03/25 02:33:26;;;;;;;1.97;1.07;;;;;;;8.47;100.00;95650.94;5055869;28;20244;-68
2023/03/25 02:36:29;;;;;;;4.97;1.23;;;;;;;8.46;100.00;95644.06;5055149;28;20204;-68
2023/03/25 02:39:00;;;;;;;2.87;1.50;;;;;;;8.36;100.00;95638.25;5056020;28;20201;-67
2023/03/25 02:41:35;;;;;;;1.87;1.20;;;;;;;8.30;100.00;95646.81;5055791;28;20424;-68
2023/03/25 02:44:06;;;;;;;3.70;1.43;;;;;;;8.25;100.00;95649.16;5054515;28;20712;-66
2023/03/25 02:46:35;;;;;;;4.63;1.37;;;;;;;8.28;100.00;95648.81;5056290;28;20211;-68
2023/03/25 02:49:06;;;;;;;3.80;1.30;;;;;;;8.26;100.00;95656.03;5059086;28;20207;-69
2023/03/25 02:51:37;;;;;;;5.17;1.53;;;;;;;8.34;100.00;95653.34;5059259;28;20224;-66
2023/03/25 02:54:09;;;;;;;3.40;1.30;;;;;;;8.35;100.00;95657.59;5058780;28;20592;-67
2023/03/25 02:56:38;;;;;;;2.70;1.23;;;;;;;8.30;100.00;95652.06;5060508;28;21198;-66
2023/03/25 02:59:07;;;;;;;2.00;1.00;;;;;;;8.31;100.00;95659.78;5058792;28;20201;-66
2023/03/25 03:01:33;;;;;;;2.80;1.17;;;;;;;8.25;100.00;95665.72;5058521;28;20220;-66
2023/03/25 03:04:00;;;;;;;1.53;1.00;;;;;;;8.23;100.00;95680.03;5058537;28;20554;-66
2023/03/25 03:06:28;;;;;;;6.27;1.67;;;;;;;8.35;100.00;95686.47;5058896;28;20286;-68
2023/03/25 03:09:13;;;;;;;4.13;2.00;;;;;;;8.44;100.00;95688.03;5058777;28;20204;-66
2023/03/25 03:11:45;;;;;;;5.27;1.50;;;;;;;8.38;100.00;95707.13;5058611;28;20224;-69
2023/03/25 03:14:37;;;;;;;2.27;1.20;;;;;;;8.34;100.00;95717.16;5057994;28;20598;-69
2023/03/25 03:17:10;;;;;;;3.23;1.50;;;;;;;8.32;100.00;95719.13;5058353;28;20205;-69
2023/03/25 03:19:45;;;;;;;9.13;1.47;;;;;;;8.21;100.00;95710.84;5058612;28;20217;-69
2023/03/25 03:22:33;;;;;;;2.57;0.80;;;;;;;8.19;100.00;95710.22;5058574;28;20224;-69
2023/03/25 03:25:06;;;;;;;3.33;1.07;;;;;;;8.05;100.00;95671.59;5057726;28;20201;-68
2023/03/25 03:27:38;;;;;;;4.20;1.40;;;;;;;8.07;100.00;95672.22;5058264;28;20200;-69
2023/03/25 03:30:09;;;;;;;0.90;0.80;;;;;;;7.96;100.00;95670.81;5058819;28;20543;-68
2023/03/25 03:32:44;;;;;;;3.73;1.10;;;;;;;7.92;100.00;95647.75;5058073;28;20319;-69
2023/03/25 03:35:17;;;;;;;2.60;1.50;;;;;;;8.02;100.00;95641.28;5056978;28;20214;-66
2023/03/25 03:37:50;;;;;;;1.23;0.83;;;;;;;7.96;100.00;95651.66;5059018;28;20661;-68
2023/03/25 03:40:21;;;;;;;5.90;1.50;;;;;;;8.06;100.00;95654.88;5059010;28;20574;-66
2023/03/25 03:42:53;;;;;;;1.73;1.07;;;;;;;8.18;100.00;95659.53;5058191;28;20290;-66
2023/03/25 03:45:24;;;;;;;3.10;1.20;;;;;;;8.08;100.00;95673.84;5057149;28;20205;-66
2023/03/25 03:47:54;;;;;;;7.93;1.20;;;;;;;8.13;100.00;95671.53;5058133;28;20650;-66
2023/03/25 03:50:24;;;;;;;2.63;1.13;;;;;;;8.12;100.00;95675.13;5057856;28;20196;-69
2023/03/25 03:52:56;;;;;;;2.80;1.23;;;;;;;8.11;100.00;95673.53;5057389;28;20327;-69
2023/03/25 03:55:29;;;;;;;4.27;1.20;;;;;;;8.12;100.00;95670.72;5057126;28;20232;-66
2023/03/25 03:58:00;;;;;;;5.03;0.90;;;;;;;8.02;100.00;95666.72;5058118;28;20196;-66
2023/03/25 04:00:31;;;;;;;1.33;0.80;;;;;;;8.19;100.00;95684.00;5057802;28;20287;-66
2023/03/25 04:03:04;;;;;;;2.57;0.83;;;;;;;8.12;100.00;95690.88;5057674;28;20221;-69
2023/03/25 04:05:33;;;;;;;0.67;0.60;;;;;;;8.13;100.00;95708.25;5057512;28;20216;-67
2023/03/25 04:08:10;;;;;;;3.80;1.40;;;;;;;8.18;100.00;95717.28;5057635;28;20204;-67
2023/03/25 04:10:44;;;;;;;3.60;1.00;;;;;;;8.16;100.00;95726.31;5057057;28;20277;-67
2023/03/25 04:13:13;;;;;;;1.53;1.10;;;;;;;8.01;100.00;95735.91;5057974;28;20192;-67
2023/03/25 04:15:40;;;;;;;6.07;1.43;;;;;;;7.89;100.00;95745.13;5056661;28;20258;-67
2023/03/25 04:18:07;;;;;;;2.83;0.90;;;;;;;7.81;100.00;95749.63;5057072;28;20196;-67
2023/03/25 04:20:35;;;;;;;0.60;0.60;;;;;;;7.78;100.00;95745.53;5057570;28;20680;-67
2023/03/25 04:23:03;;;;;;;1.67;1.10;;;;;;;7.70;100.00;95737.72;5057086;28;20248;-67
2023/03/25 04:25:31;;;;;;;3.67;1.33;;;;;;;7.81;100.00;95724.22;5056495;28;20723;-67
2023/03/25 04:27:59;;;;;;;4.07;1.50;;;;;;;7.72;100.00;95712.13;5057671;28;20283;-67
2023/03/25 04:30:29;;;;;;;5.77;1.30;;;;;;;7.71;100.00;95713.13;5057765;28;20200;-67
2023/03/25 04:32:56;;;;;;;4.23;1.40;;;;;;;7.68;100.00;95729.19;5057096;28;20597;-67
2023/03/25 04:35:24;;;;;;;2.40;1.57;;;;;;;7.71;100.00;95726.22;5056401;28;20590;-67
2023/03/25 04:37:53;;;;;;;3.63;1.93;;;;;;;7.77;100.00;95722.13;5056925;28;20707;-67
2023/03/25 04:40:20;;;;;;;3.67;1.60;;;;;;;7.76;100.00;95718.66;5057161;28;20350;-67
2023/03/25 04:42:47;;;;;;;6.33;1.40;;;;;;;7.75;100.00;95719.69;5057240;28;20232;-67
2023/03/25 04:45:16;;;;;;;3.37;1.40;;;;;;;7.69;100.00;95715.09;5056680;28;20197;-67
2023/03/25 04:47:45;;;;;;;3.37;2.07;;;;;;;7.67;100.00;95714.44;5056711;28;20212;-67
2023/03/25 04:50:18;;;;;;;2.77;1.70;;;;;;;7.80;100.00;95722.56;5056498;28;20203;-67
2023/03/25 04:52:45;;;;;;;5.23;1.60;;;;;;;7.74;100.00;95723.28;5058012;28;20220;-67
2023/03/25 04:55:16;;;;;;;5.47;1.43;;;;;;;7.75;100.00;95730.16;5055826;28;20768;-67
2023/03/25 04:57:44;;;;;;;2.33;1.30;;;;;;;7.79;100.00;95731.44;5056704;28;20204;-69
2023/03/25 05:00:12;;;;;;;4.37;1.00;;;;;;;7.78;100.00;95734.22;5056656;28;20204;-66
2023/03/25 05:02:45;;;;;;;3.03;1.40;;;;;;;7.90;100.00;95738.91;5056587;28;20216;-69
2023/03/25 05:05:17;;;;;;;1.67;1.20;;;;;;;7.76;100.00;95725.72;5055917;28;20201;-67
2023/03/25 05:07:45;;;;;;;1.77;1.10;;;;;;;7.82;100.00;95743.41;5057386;28;20209;-67
2023/03/25 05:10:11;;;;;;;2.73;1.40;;;;;;;7.87;100.00;95739.28;5056212;28;20311;-67
2023/03/25 05:12:38;;;;;;;1.77;1.00;;;;;;;7.70;100.00;95739.50;5056170;28;20242;-67
2023/03/25 05:15:06;;;;;;;5.63;1.37;;;;;;;7.80;100.00;95737.50;5055908;28;20925;-67
2023/03/25 05:17:32;;;;;;;3.70;1.30;;;;;;;7.84;100.00;95731.75;5056677;28;20196;-67
2023/03/25 05:20:00;;;;;;;5.23;1.33;;;;;;;7.86;100.00;95738.44;5055766;28;20212;-67
2023/03/25 05:22:27;;;;;;;7.90;1.10;;;;;;;7.74;100.00;95735.56;5056574;28;20228;-67
2023/03/25 05:24:55;;;;;;;2.07;0.70;;;;;;;7.70;100.00;95740.34;5056164;28;20207;-67
2023/03/25 05:27:21;;;;;;;1.73;0.83;;;;;;;7.77;100.00;95741.28;5056327;28;20550;-67
2023/03/25 05:29:48;;;;;;;2.93;0.90;;;;;;;7.76;100.00;95749.31;5056259;28;20207;-67
2023/03/25 05:32:16;;;;;;;4.10;1.00;;;;;;;7.71;100.00;95749.81;5056121;28;20835;-67
2023/03/25 05:34:45;;;;;;;2.43;0.70;;;;;;;7.79;100.00;95752.44;5055394;28;20223;-67
2023/03/25 05:37:13;;;;;;;1.80;1.00;;;;;;;7.87;100.00;95755.00;5056909;28;20247;-67
2023/03/25 05:39:39;;;;;;;2.43;1.60;;;;;;;7.92;100.00;95760.56;5056395;28;20209;-67
2023/03/25 05:42:06;;;;;;;2.73;0.97;;;;;;;7.91;100.00;95757.09;5055483;28;20217;-67
2023/03/25 05:44:33;;;;;;;1.90;0.77;;;;;;;7.85;100.00;95756.16;5055806;28;20192;-68
2023/03/25 05:47:00;;;;;;;5.43;1.30;;;;;;;7.92;100.00;95757.94;5057223;28;20208;-67
2023/03/25 05:49:26;;;;;;;5.30;0.77;;;;;;;7.84;100.00;95760.59;5056024;28;20201;-67
2023/03/25 05:51:54;;;;;;;2.57;0.80;;;;;;;7.77;100.00;95754.41;5055652;28;20270;-67
2023/03/25 05:54:23;;;;;;;3.33;0.70;;;;;;;7.90;100.00;95759.91;5055967;28;20973;-68
2023/03/25 05:56:49;;;;;;;4.47;0.93;;;;;;;7.79;100.00;95752.44;5056531;28;20781;-67
2023/03/25 05:59:16;;;;;;;1.60;0.60;;;;;;;7.70;100.00;95753.47;5056253;28;20648;-67
2023/03/25 06:01:44;;;;;;;4.07;0.70;;;;;;;7.73;100.00;95752.31;5055877;28;20230;-67
2023/03/25 06:04:11;;;;;;;2.73;0.40;;;;;;;7.67;100.00;95755.59;5055910;28;20223;-67
2023/03/25 06:06:40;;;;;;;1.37;0.60;;;;;;;7.64;100.00;95756.75;5055734;28;20226;-67
2023/03/25 06:09:07;;;;;;;2.53;0.63;;;;;;;7.71;100.00;95755.06;5056199;28;20390;-67
2023/03/25 06:11:36;;;;;;;0.83;0.60;;;;;;;7.80;100.00;95766.34;5055369;28;20231;-67
2023/03/25 06:14:03;;;;;;;33.47;2.43;;;;;;;7.75;100.00;95772.13;5054731;28;20227;-67
2023/03/25 06:16:31;;;;;;;2.63;0.83;;;;;;;7.64;100.00;95777.72;5056026;28;20211;-67
2023/03/25 06:18:59;;;;;;;0.80;0.63;;;;;;;7.56;100.00;95776.94;5055871;28;20979;-67
2023/03/25 06:21:26;;;;;;;0.50;0.50;;;;;;;7.59;100.00;95785.28;5055772;28;20220;-67
2023/03/25 06:23:54;;;;;;;1.13;0.87;;;;;;;7.54;100.00;95784.97;5058512;28;20215;-67
2023/03/25 06:26:22;;;;;;;0.70;0.60;;;;;;;7.64;100.00;95796.09;5059863;28;20258;-67
2023/03/25 06:28:50;;;;;;;1.13;0.47;;;;;;;7.60;100.00;95788.72;5059068;28;20205;-67
2023/03/25 06:31:19;;;;;;;2.07;1.00;;;;;;;7.62;100.00;95790.19;5059445;28;20220;-68
2023/03/25 06:33:47;;;;;;;0.40;0.40;;;;;;;7.80;100.00;95785.50;5058949;28;20315;-67
2023/03/25 06:36:17;;;;;;;0.93;0.50;;;;;;;7.75;100.00;95787.88;5059596;28;20569;-67
2023/03/25 06:38:44;;;;;;;0.67;0.53;;;;;;;7.75;99.81;95790.47;5059125;28;20209;-68
2023/03/25 06:41:12;;;;;;;1.00;0.67;;;;;;;7.83;100.00;95782.56;5059403;28;20715;-68
2023/03/25 06:43:39;;;;;;;12.03;2.93;;;;;;;7.87;100.00;95783.84;5058725;28;20919;-67
2023/03/25 06:46:07;;;;;;;2.43;1.17;;;;;;;8.03;100.00;95789.00;5058760;28;20201;-67
2023/03/25 06:48:34;;;;;;;5.03;1.87;;;;;;;8.08;98.64;95787.53;5059554;28;20201;-67
2023/03/25 06:51:00;;;;;;;4.47;1.43;;;;;;;8.10;100.00;95796.03;5059612;28;20248;-67
2023/03/25 06:53:27;;;;;;;3.20;1.33;;;;;;;8.15;100.00;95798.19;5059192;28;20196;-68
2023/03/25 06:55:56;;;;;;;1.50;0.90;;;;;;;8.27;98.21;95799.41;5058676;28;20247;-68
2023/03/25 06:58:23;;;;;;;1.27;0.93;;;;;;;8.20;99.91;95807.16;5060325;28;20250;-67
2023/03/25 07:00:53;;;;;;;3.03;0.83;;;;;;;8.25;98.85;95811.88;5058608;28;20683;-67
2023/03/25 07:03:21;;;;;;;1.00;0.60;;;;;;;8.06;97.15;95817.53;5058880;28;20650;-67
2023/03/25 07:05:48;;;;;;;1.07;0.50;;;;;;;8.03;98.31;95823.94;5058115;28;20592;-67
2023/03/25 07:08:15;;;;;;;1.03;0.47;;;;;;;7.97;97.92;95831.69;5059255;28;20204;-68
2023/03/25 07:10:41;;;;;;;3.10;0.80;;;;;;;7.86;98.33;95833.88;5058648;28;20695;-67
2023/03/25 07:13:09;;;;;;;1.07;0.57;;;;;;;7.92;97.79;95841.88;5058842;28;20201;-70
2023/03/25 07:15:36;;;;;;;4.27;0.70;;;;;;;7.95;98.25;95839.69;5057974;28;20217;-69
2023/03/25 07:18:02;;;;;;;0.60;0.60;;;;;;;7.87;98.04;95844.19;5058815;28;20211;-69
2023/03/25 07:20:30;;;;;;;2.87;1.40;;;;;;;8.10;98.78;95848.50;5058664;28;20669;-69
2023/03/25 07:22:56;;;;;;;2.53;1.07;;;;;;;8.00;98.71;95845.25;5058298;28;20227;-70
2023/03/25 07:25:23;;;;;;;7.23;1.03;;;;;;;8.04;98.38;95837.88;5057612;28;20196;-70
2023/03/25 07:27:50;;;;;;;3.93;1.20;;;;;;;8.11;97.82;95842.28;5060240;28;20205;-69
2023/03/25 07:30:16;;;;;;;4.50;1.00;;;;;;;8.39;97.23;95830.34;5058582;28;20930;-69
2023/03/25 07:32:44;;;;;;;2.10;0.53;;;;;;;8.50;95.71;95830.75;5057525;28;20235;-70
2023/03/25 07:35:10;;;;;;;3.50;0.70;;;;;;;8.21;95.96;95829.78;5057633;28;20228;-70
2023/03/25 07:37:38;;;;;;;8.90;0.60;;;;;;;8.38;98.16;95828.69;5058688;28;20197;-69
2023/03/25 07:40:06;;;;;;;0.50;0.50;;;;;;;8.32;95.78;95823.31;5058811;28;20200;-69
2023/03/25 07:42:32;;;;;;;0.60;0.40;;;;;;;8.30;96.61;95820.88;5058237;28;21053;-69
2023/03/25 07:44:59;;;;;;;8.30;1.57;;;;;;;8.28;97.90;95812.34;5057664;28;20247;-69
2023/03/25 07:47:25;;;;;;;2.57;0.97;;;;;;;8.27;97.48;95815.16;5058488;28;20200;-69
2023/03/25 07:49:52;;;;;;;1.03;0.60;;;;;;;8.39;97.44;95814.59;5057662;28;20205;-69
2023/03/25 07:52:18;;;;;;;6.37;1.03;;;;;;;8.33;96.28;95814.47;5058390;28;20235;-69
2023/03/25 07:54:46;;;;;;;0.73;0.50;;;;;;;8.61;96.41;95814.59;5057797;28;20235;-69
2023/03/25 07:57:12;;;;;;;8.23;2.73;;;;;;;8.57;96.81;95812.50;5057956;28;20204;-69
2023/03/25 07:59:39;;;;;;;2.43;1.10;;;;;;;8.61;96.32;95809.34;5057967;28;20289;-69
2023/03/25 08:02:06;;;;;;;0.60;0.60;;;;;;;8.60;93.90;95818.22;5057889;28;20224;-69
2023/03/25 08:04:33;;;;;;;7.07;2.10;;;;;;;8.67;95.10;95824.41;5056948;28;20212;-70
2023/03/25 08:06:59;;;;;;;2.87;0.87;;;;;;;8.70;95.17;95823.22;5057097;28;20524;-69
2023/03/25 08:09:26;;;;;;;1.70;0.73;;;;;;;8.61;93.58;95829.53;5058119;28;20197;-69
2023/03/25 08:11:53;;;;;;;4.40;1.60;;;;;;;8.91;94.57;95828.63;5056998;28;21452;-69
2023/03/25 08:14:20;;;;;;;0.63;0.63;;;;;;;8.71;93.53;95830.94;5055773;28;20211;-69
2023/03/25 08:16:46;;;;;;;1.53;0.60;;;;;;;8.82;94.49;95827.91;5056853;28;20200;-69
2023/03/25 08:19:13;;;;;;;3.17;0.90;;;;;;;8.75;93.97;95834.03;5057550;28;20205;-69
2023/03/25 08:21:40;;;;;;;0.40;0.40;;;;;;;8.95;92.85;95829.91;5056512;28;20471;-69
2023/03/25 08:24:06;;;;;;;0.87;0.50;;;;;;;9.09;92.31;95828.16;5056399;28;20208;-69
2023/03/25 08:26:34;;;;;;;0.30;0.30;;;;;;;8.99;92.18;95828.59;5056810;28;20204;-69
2023/03/25 08:29:02;;;;;;;0.60;0.40;;;;;;;9.31;93.82;95844.88;5056280;28;20205;-69
2023/03/25 08:31:30;;;;;;;1.07;0.60;;;;;;;9.31;91.56;95845.69;5056291;28;20302;-70
2023/03/25 08:34:01;;;;;;;0.40;0.40;;;;;;;9.28;90.01;95842.63;5060350;28;20865;-69
2023/03/25 08:36:27;;;;;;;1.03;1.03;;;;;;;9.17;89.62;95843.84;5061483;28;20327;-68
2023/03/25 08:38:54;;;;;;;1.70;0.30;;;;;;;9.15;90.93;95840.59;5056510;28;20201;-68
2023/03/25 08:41:20;;;;;;;0.67;0.40;;;;;;;9.31;91.28;95829.13;5057115;28;20220;-68
2023/03/25 08:43:47;;;;;;;0.40;0.40;;;;;;;9.36;90.70;95826.75;5055469;28;20204;-68
2023/03/25 08:46:15;;;;;;;3.00;0.67;;;;;;;9.46;90.84;95833.38;5056217;28;20203;-68
2023/03/25 08:48:42;;;;;;;0.50;0.50;;;;;;;9.04;91.40;95832.31;5056743;28;20205;-68
2023/03/25 08:51:09;;;;;;;0.70;0.37;;;;;;;9.28;91.69;95846.06;5057003;28;20768;-68
2023/03/25 08:53:36;;;;;;;0.40;0.37;;;;;;;8.97;89.36;95852.41;5056305;28;20200;-68
2023/03/25 08:56:02;;;;;;;0.73;0.50;;;;;;;9.03;90.71;95827.25;5056665;28;20216;-68
2023/03/25 08:58:29;;;;;;;0.30;0.30;;;;;;;9.18;91.63;95831.53;5057021;28;20208;-68
2023/03/25 09:00:57;;;;;;;0.30;0.30;;;;;;;9.28;91.20;95835.53;5056780;28;20225;-68
2023/03/25 09:03:26;;;;;;;0.30;0.30;;;;;;;9.17;90.80;95824.66;5056075;28;20302;-68
2023/03/25 09:05:53;;;;;;;0.87;0.80;;;;;;;9.17;91.60;95828.06;5056023;28;20283;-68
2023/03/25 09:08:19;;;;;;;2.60;1.00;;;;;;;9.21;91.79;95833.81;5057117;28;20276;-68
2023/03/25 09:10:46;;;;;;;1.13;0.30;;;;;;;9.17;92.14;95822.00;5055871;28;20201;-68
2023/03/25 09:13:12;;;;;;;0.77;0.57;;;;;;;9.33;91.92;95821.84;5057181;28;20205;-68
2023/03/25 09:15:39;;;;;;;4.47;1.03;;;;;;;9.18;92.68;95823.66;5056025;28;20971;-68
2023/03/25 09:18:05;;;;;;;1.43;0.70;;;;;;;9.25;90.84;95814.88;5056151;28;20196;-68
2023/03/25 09:20:33;;;;;;;2.37;0.87;;;;;;;9.32;91.37;95814.97;5056405;28;20623;-69
2023/03/25 09:23:00;;;;;;;1.50;0.40;;;;;;;9.17;92.31;95806.25;5057492;28;20228;-68
2023/03/25 09:25:27;;;;;;;3.47;1.13;;;;;;;9.23;94.15;95795.81;5055003;28;20200;-68
2023/03/25 09:27:53;;;;;;;2.87;0.90;;;;;;;9.34;94.92;95794.56;5055928;28;20269;-69
2023/03/25 09:30:20;;;;;;;6.23;1.50;;;;;;;9.23;93.42;95795.03;5056855;28;20752;-68
2023/03/25 09:32:46;;;;;;;0.37;0.37;;;;;;;9.24;91.38;95791.38;5056411;28;20700;-69
2023/03/25 09:35:13;;;;;;;1.90;0.70;;;;;;;9.34;92.52;95786.69;5055402;28;20224;-68
2023/03/25 09:37:41;;;;;;;3.17;0.70;;;;;;;9.39;93.83;95785.13;5056596;28;20200;-69
2023/03/25 09:40:10;;;;;;;5.73;1.30;;;;;;;9.51;94.39;95782.88;5055998;28;20247;-68
2023/03/25 09:42:48;;;;;;;3.13;2.07;;;;;;;9.50;92.77;95782.06;5053878;28;20235;-69
2023/03/25 09:45:25;;;;;;;2.00;1.00;;;;;;;9.54;93.75;95782.53;5055026;28;20287;-68
2023/03/25 09:47:57;;;;;;;3.17;0.90;;;;;;;9.49;94.08;95779.63;5055661;28;20250;-69
2023/03/25 09:50:26;;;;;;;2.07;0.90;;;;;;;9.68;93.98;95772.78;5054716;28;20928;-69
2023/03/25 09:53:00;;;;;;;1.33;0.70;;;;;;;9.84;93.35;95769.97;5055550;28;20227;-67
2023/03/25 09:55:30;;;;;;;2.97;1.50;;;;;;;10.20;93.01;95765.56;5055109;28;20223;-69
2023/03/25 09:58:13;;;;;;;5.47;1.00;;;;;;;10.23;90.96;95769.66;5058936;28;20202;-69
2023/03/25 10:00:40;;;;;;;2.17;0.90;;;;;;;10.34;88.59;95767.34;5059292;28;20196;-69
2023/03/25 10:03:15;;;;;;;1.80;0.90;;;;;;;10.60;87.12;95757.91;5058308;28;20200;-69
2023/03/25 10:06:11;;;;;;;2.43;1.10;;;;;;;10.77;87.54;95748.72;5059002;28;20265;-70
2023/03/25 10:08:53;;;;;;;1.73;0.90;;;;;;;10.86;86.42;95737.03;5059408;28;20204;-70
2023/03/25 10:11:29;;;;;;;4.00;0.97;;;;;;;10.96;85.80;95745.44;5058656;28;20223;-66
2023/03/25 10:14:01;;;;;;;1.83;0.50;;;;;;;11.08;84.36;95741.28;5058195;28;20213;-70
2023/03/25 10:16:41;;;;;;;2.67;0.63;;;;;;;10.77;84.31;95740.00;5058688;28;20731;-70
2023/03/25 10:19:23;;;;;;;2.50;0.60;;;;;;;10.89;87.22;95738.50;5059052;28;20283;-66
2023/03/25 10:21:56;;;;;;;1.90;0.90;;;;;;;10.57;85.90;95726.66;5059730;28;20309;-70
2023/03/25 10:24:28;;;;;;;1.47;0.77;;;;;;;10.53;86.32;95741.19;5058604;28;20205;-69
2023/03/25 10:26:59;;;;;;;4.50;0.67;;;;;;;10.44;87.97;95744.16;5059220;28;20193;-70
2023/03/25 10:29:31;;;;;;;3.53;0.80;;;;;;;10.24;87.99;95744.97;5059000;28;20212;-66
2023/03/25 10:32:05;;;;;;;1.33;0.80;;;;;;;10.54;86.99;95732.31;5058485;28;20224;-67
2023/03/25 10:34:37;;;;;;;1.90;0.80;;;;;;;10.53;87.01;95729.88;5058701;28;20204;-68
2023/03/25 10:37:11;;;;;;;4.27;0.70;;;;;;;10.75;87.98;95726.19;5058614;28;20289;-65
2023/03/25 10:39:44;;;;;;;0.57;0.53;;;;;;;10.81;86.61;95731.53;5059491;28;20204;-70
2023/03/25 10:42:20;;;;;;;0.60;0.43;;;;;;;10.66;89.11;95736.06;5059451;28;20224;-70
2023/03/25 10:44:47;;;;;;;1.03;0.43;;;;;;;10.63;90.66;95740.91;5059193;28;20668;-70
2023/03/25 10:47:19;;;;;;;0.50;0.50;;;;;;;10.84;89.01;95725.06;5059458;28;21061;-69
2023/03/25 10:49:48;;;;;;;5.30;0.60;;;;;;;10.83;85.12;95728.69;5060154;28;20200;-71
2023/03/25 10:52:15;;;;;;;0.50;0.50;;;;;;;10.74;84.21;95721.94;5060139;28;20231;-69
2023/03/25 10:54:48;;;;;;;0.53;0.50;;;;;;;10.81;84.54;95720.19;5057618;28;20196;-69
2023/03/25 10:57:20;;;;;;;1.07;0.50;;;;;;;10.50;84.31;95715.25;5059521;28;20220;-69
2023/03/25 10:59:57;;;;;;;0.93;0.70;;;;;;;10.71;84.93;95714.41;5059793;28;20283;-69
2023/03/25 11:02:26;;;;;;;0.33;0.33;;;;;;;10.62;85.60;95712.91;5059403;28;20224;-69
2023/03/25 11:04:56;;;;;;;1.03;0.60;;;;;;;10.86;85.44;95715.97;5058319;28;20196;-69
2023/03/25 11:07:28;;;;;;;1.27;0.50;;;;;;;10.98;85.53;95722.31;5058780;28;20196;-69
2023/03/25 11:10:09;;;;;;;1.80;0.80;;;;;;;11.29;82.80;95710.38;5059611;28;20200;-69
2023/03/25 11:12:35;;;;;;;0.67;0.47;;;;;;;11.07;82.90;95705.34;5058289;28;20231;-69
2023/03/25 11:15:02;;;;;;;0.60;0.60;;;;;;;11.34;80.97;95705.34;5058349;28;20665;-69
2023/03/25 11:17:29;;;;;;;0.47;0.47;;;;;;;11.47;78.77;95712.50;5058818;28;20696;-69
2023/03/25 11:19:59;;;;;;;1.40;0.40;;;;;;;11.88;78.87;95704.41;5058787;28;20211;-69
2023/03/25 11:22:28;;;;;;;0.30;0.30;;;;;;;11.63;78.27;95716.50;5058894;28;20666;-70
2023/03/25 11:25:02;;;;;;;0.40;0.40;;;;;;;11.62;77.98;95709.59;5057985;28;20200;-69
2023/03/25 11:27:30;;;;;;;5.73;0.50;;;;;;;11.66;78.57;95721.38;5058449;28;20578;-69
2023/03/25 11:30:01;;;;;;;0.30;0.30;;;;;;;11.46;80.11;95714.31;5058546;28;20287;-69
2023/03/25 11:32:33;;;;;;;0.50;0.50;;;;;;;11.20;83.27;95705.44;5058003;28;20227;-69
2023/03/25 11:35:02;;;;;;;0.47;0.40;;;;;;;11.44;81.93;95705.78;5057754;28;21010;-69
2023/03/25 11:37:30;;;;;;;0.50;0.50;;;;;;;11.76;81.89;95700.72;5058610;28;20273;-69
2023/03/25 11:40:05;;;;;;;3.00;0.50;;;;;;;12.12;78.13;95688.03;5058076;28;20201;-69
2023/03/25 11:42:35;;;;;;;0.67;0.67;;;;;;;11.57;77.27;95693.53;5057938;28;20220;-69
2023/03/25 11:45:02;;;;;;;0.47;0.47;;;;;;;11.91;78.56;95674.97;5057774;28;20197;-69
2023/03/25 11:47:31;;;;;;;0.60;0.50;;;;;;;12.14;78.61;95675.44;5058178;28;20200;-69